createdAt,value
2019-03-26T00:01:45.359Z,9.33
2019-03-26T00:04:15.451Z,9.77
2019-03-26T00:06:45.371Z,10.13
2019-03-26T00:09:15.219Z,9.47
2019-03-26T00:11:44.925Z,9.63
2019-03-26T00:14:14.868Z,9.47
2019-03-26T00:16:44.597Z,9.50
2019-03-26T00:19:14.476Z,9.53
2019-03-26T00:21:44.182Z,11.87
2019-03-26T00:24:14.001Z,9.93
2019-03-26T00:26:43.705Z,10.80
2019-03-26T00:29:13.594Z,10.50
2019-03-26T00:31:43.714Z,10.20
2019-03-26T00:34:19.240Z,10.80
2019-03-26T00:36:44.823Z,10.67
2019-03-26T00:39:14.501Z,10.60
2019-03-26T00:41:44.224Z,9.33
2019-03-26T00:44:13.919Z,11.77
2019-03-26T00:46:43.695Z,12.47
2019-03-26T00:49:13.377Z,11.80
2019-03-26T00:51:43.127Z,11.03
2019-03-26T00:54:12.808Z,10.53
2019-03-26T00:56:42.504Z,11.07
2019-03-26T00:59:12.168Z,10.10
2019-03-26T01:01:41.864Z,10.63
2019-03-26T01:04:11.586Z,9.87
2019-03-26T01:06:41.435Z,11.33
2019-03-26T01:09:11.167Z,10.67
2019-03-26T01:11:41.024Z,10.67
2019-03-26T01:14:10.721Z,10.43
2019-03-26T01:16:40.467Z,12.37
2019-03-26T01:19:10.219Z,10.90
2019-03-26T01:21:39.918Z,10.47
2019-03-26T01:24:09.599Z,11.10
2019-03-26T01:26:39.304Z,11.13
2019-03-26T01:29:09.049Z,10.57
2019-03-26T01:31:38.791Z,10.80
2019-03-26T01:34:08.714Z,9.57
2019-03-26T01:36:38.404Z,11.23
2019-03-26T01:39:08.257Z,10.87
2019-03-26T01:41:37.923Z,10.63
2019-03-26T01:44:07.633Z,9.50
2019-03-26T01:46:37.309Z,9.50
2019-03-26T01:49:07.032Z,10.73
2019-03-26T01:51:36.704Z,10.00
2019-03-26T01:54:07.901Z,10.03
2019-03-26T01:56:37.594Z,10.57
2019-03-26T01:59:07.341Z,10.60
2019-03-26T02:01:37.037Z,11.00
2019-03-26T02:04:06.805Z,9.23
2019-03-26T02:06:36.488Z,10.17
2019-03-26T02:09:07.329Z,10.87
2019-03-26T02:11:37.017Z,11.80
2019-03-26T02:14:06.753Z,10.70
2019-03-26T02:16:36.426Z,8.93
2019-03-26T02:19:06.130Z,10.97
2019-03-26T02:21:35.817Z,9.73
2019-03-26T02:24:05.791Z,11.30
2019-03-26T02:26:35.485Z,9.10
2019-03-26T02:29:05.205Z,13.57
2019-03-26T02:31:34.889Z,9.97
2019-03-26T02:34:04.650Z,10.07
2019-03-26T02:36:34.568Z,9.93
2019-03-26T02:39:05.997Z,10.13
2019-03-26T02:41:37.851Z,12.13
2019-03-26T02:44:07.116Z,10.87
2019-03-26T02:46:36.819Z,10.60
2019-03-26T02:49:06.789Z,10.97
2019-03-26T02:51:36.488Z,11.60
2019-03-26T02:54:06.385Z,9.70
2019-03-26T02:56:36.093Z,10.70
2019-03-26T02:59:05.765Z,10.73
2019-03-26T03:01:35.769Z,10.67
2019-03-26T03:04:05.523Z,9.57
2019-03-26T03:06:35.238Z,11.27
2019-03-26T03:09:06.400Z,9.70
2019-03-26T03:11:36.120Z,10.87
2019-03-26T03:14:05.796Z,9.93
2019-03-26T03:16:35.494Z,11.60
2019-03-26T03:19:05.268Z,9.80
2019-03-26T03:21:35.020Z,9.83
2019-03-26T03:24:04.700Z,11.27
2019-03-26T03:26:34.428Z,10.87
2019-03-26T03:29:04.313Z,9.83
2019-03-26T03:31:34.019Z,10.47
2019-03-26T03:34:03.797Z,10.83
2019-03-26T03:36:33.727Z,10.57
2019-03-26T03:39:05.241Z,11.13
2019-03-26T03:41:35.318Z,11.53
2019-03-26T03:44:05.010Z,10.27
2019-03-26T03:46:35.507Z,12.87
2019-03-26T03:49:05.388Z,11.20
2019-03-26T03:51:36.040Z,12.90
2019-03-26T03:54:05.812Z,12.50
2019-03-26T03:56:37.584Z,10.27
2019-03-26T03:59:10.221Z,11.13
2019-03-26T04:01:39.922Z,10.60
2019-03-26T04:04:09.635Z,10.23
2019-03-26T04:06:46.978Z,12.47
2019-03-26T04:09:14.359Z,12.77
2019-03-26T04:11:44.115Z,10.47
2019-03-26T04:14:13.837Z,11.73
2019-03-26T04:16:43.595Z,12.93
2019-03-26T04:19:13.305Z,13.50
2019-03-26T04:21:43.019Z,13.40
2019-03-26T04:24:12.931Z,12.13
2019-03-26T04:26:42.866Z,14.23
2019-03-26T04:29:12.577Z,13.93
2019-03-26T04:31:42.248Z,11.50
2019-03-26T04:34:11.982Z,12.30
2019-03-26T04:36:41.654Z,12.50
2019-03-26T04:39:11.358Z,13.73
2019-03-26T04:41:41.035Z,16.43
2019-03-26T04:44:10.830Z,11.13
2019-03-26T04:46:40.517Z,12.90
2019-03-26T04:49:10.444Z,12.90
2019-03-26T04:51:40.146Z,12.60
2019-03-26T04:54:09.844Z,14.37
2019-03-26T04:56:39.515Z,12.00
2019-03-26T04:59:09.222Z,13.77
2019-03-26T05:01:38.913Z,12.87
2019-03-26T05:04:08.781Z,13.87
2019-03-26T05:06:38.596Z,19.43
2019-03-26T05:09:08.381Z,13.57
2019-03-26T05:11:38.088Z,18.73
2019-03-26T05:14:07.865Z,21.37
2019-03-26T05:16:37.605Z,18.30
2019-03-26T05:19:07.411Z,20.10
2019-03-26T05:21:37.211Z,19.67
2019-03-26T05:24:06.967Z,17.00
2019-03-26T05:26:36.640Z,17.20
2019-03-26T05:29:25.149Z,22.43
2019-03-26T05:31:54.892Z,19.00
2019-03-26T05:34:24.718Z,19.10
2019-03-26T05:36:54.424Z,20.60
2019-03-26T05:39:24.205Z,18.20
2019-03-26T05:41:53.925Z,15.10
2019-03-26T05:44:23.863Z,15.13
2019-03-26T05:46:53.701Z,16.33
2019-03-26T05:49:25.672Z,19.27
2019-03-26T05:51:55.417Z,15.43
2019-03-26T05:54:26.889Z,14.77
2019-03-26T05:56:56.630Z,51.67
2019-03-26T05:59:26.396Z,20.83
2019-03-26T06:01:56.187Z,15.27
2019-03-26T06:04:25.916Z,16.87
2019-03-26T06:07:04.635Z,16.30
2019-03-26T06:09:27.160Z,17.20
2019-03-26T06:12:05.839Z,18.83
2019-03-26T06:14:35.541Z,16.07
2019-03-26T06:17:05.249Z,16.23
2019-03-26T06:19:34.940Z,17.87
2019-03-26T06:22:04.796Z,14.33
2019-03-26T06:24:34.505Z,18.33
2019-03-26T06:27:04.318Z,18.67
2019-03-26T06:29:34.021Z,19.57
2019-03-26T06:32:03.743Z,16.57
2019-03-26T06:34:33.442Z,16.50
2019-03-26T06:37:03.246Z,16.33
2019-03-26T06:39:33.012Z,17.40
2019-03-26T06:42:02.743Z,18.10
2019-03-26T06:44:32.700Z,17.30
2019-03-26T06:47:02.435Z,18.87
2019-03-26T06:49:32.176Z,16.63
2019-03-26T06:52:02.007Z,17.20
2019-03-26T06:54:31.999Z,15.37
2019-03-26T06:57:01.666Z,16.33
2019-03-26T06:59:31.423Z,15.70
2019-03-26T07:02:01.223Z,16.80
2019-03-26T07:04:30.956Z,19.40
2019-03-26T07:07:00.659Z,16.23
2019-03-26T07:09:30.540Z,16.50
2019-03-26T07:12:00.259Z,18.03
2019-03-26T07:14:30.213Z,17.13
2019-03-26T07:17:00.128Z,15.00
2019-03-26T07:19:29.832Z,18.00
2019-03-26T07:21:59.527Z,20.37
2019-03-26T07:24:29.296Z,17.30
2019-03-26T07:26:59.272Z,19.93
2019-03-26T07:29:28.979Z,18.67
2019-03-26T07:31:58.800Z,17.87
2019-03-26T07:34:30.614Z,18.60
2019-03-26T07:37:00.307Z,17.27
2019-03-26T07:39:30.010Z,21.03
2019-03-26T07:41:59.714Z,21.77
2019-03-26T07:44:29.457Z,18.63
2019-03-26T07:46:59.134Z,19.60
2019-03-26T07:49:28.813Z,15.63
2019-03-26T07:51:58.564Z,15.03
2019-03-26T07:54:28.333Z,16.63
2019-03-26T07:56:58.041Z,16.60
2019-03-26T07:59:27.768Z,17.40
2019-03-26T08:01:57.551Z,15.93
2019-03-26T08:04:27.224Z,19.63
2019-03-26T08:06:56.911Z,15.53
2019-03-26T08:09:26.781Z,17.67
2019-03-26T08:11:56.735Z,18.80
2019-03-26T08:14:26.458Z,16.37
2019-03-26T08:16:56.205Z,18.77
2019-03-26T08:19:25.898Z,17.77
2019-03-26T08:21:55.590Z,19.03
2019-03-26T08:24:25.295Z,18.93
2019-03-26T08:26:55.023Z,18.57
2019-03-26T08:29:24.721Z,16.77
2019-03-26T08:31:54.552Z,16.00
2019-03-26T08:34:24.334Z,18.90
2019-03-26T08:36:54.053Z,18.67
2019-03-26T08:39:23.784Z,17.00
2019-03-26T08:41:53.580Z,17.63
2019-03-26T08:44:23.285Z,17.73
2019-03-26T08:46:53.004Z,18.20
2019-03-26T08:49:22.726Z,16.40
2019-03-26T08:51:52.472Z,17.07
2019-03-26T08:54:22.245Z,15.67
2019-03-26T08:56:51.964Z,19.23
2019-03-26T08:59:21.684Z,17.60
2019-03-26T09:01:51.383Z,14.93
2019-03-26T09:04:21.167Z,20.03
2019-03-26T09:06:50.858Z,16.40
2019-03-26T09:09:20.589Z,15.33
2019-03-26T09:11:50.274Z,17.50
2019-03-26T09:14:19.981Z,13.87
2019-03-26T09:16:49.760Z,17.47
2019-03-26T09:19:19.481Z,17.83
2019-03-26T09:21:49.153Z,14.43
2019-03-26T09:24:18.889Z,15.67
2019-03-26T09:26:48.633Z,14.47
2019-03-26T09:29:18.522Z,16.03
2019-03-26T09:31:48.203Z,14.80
2019-03-26T09:34:17.928Z,15.53
2019-03-26T09:36:47.600Z,14.30
2019-03-26T09:39:17.307Z,16.00
2019-03-26T09:41:47.026Z,14.80
2019-03-26T09:44:16.730Z,17.93
2019-03-26T09:46:46.416Z,15.33
2019-03-26T09:49:17.308Z,15.23
2019-03-26T09:51:47.010Z,15.40
2019-03-26T09:54:16.712Z,13.77
2019-03-26T09:56:46.392Z,16.67
2019-03-26T09:59:16.076Z,12.40
2019-03-26T10:01:45.880Z,11.27
2019-03-26T10:04:15.679Z,12.43
2019-03-26T10:06:45.440Z,12.97
2019-03-26T10:09:15.142Z,11.50
2019-03-26T10:11:44.812Z,13.67
2019-03-26T10:14:14.932Z,12.47
2019-03-26T10:16:44.685Z,12.27
2019-03-26T10:19:16.892Z,10.13
2019-03-26T10:21:45.888Z,10.23
2019-03-26T10:24:15.600Z,10.30
2019-03-26T10:26:45.313Z,10.27
2019-03-26T10:29:29.202Z,10.37
2019-03-26T10:31:46.480Z,10.23
2019-03-26T10:34:16.180Z,12.00
2019-03-26T10:36:45.873Z,9.27
2019-03-26T10:39:15.580Z,10.40
2019-03-26T10:41:45.541Z,10.03
2019-03-26T10:44:15.211Z,10.23
2019-03-26T10:46:44.912Z,11.40
2019-03-26T10:49:14.612Z,9.60
2019-03-26T10:51:44.357Z,6.97
2019-03-26T10:54:14.025Z,7.27
2019-03-26T10:56:43.733Z,10.13
2019-03-26T10:59:13.413Z,7.93
2019-03-26T11:01:43.125Z,8.30
2019-03-26T11:04:12.813Z,7.77
2019-03-26T11:06:42.593Z,6.97
2019-03-26T11:09:23.060Z,8.10
2019-03-26T11:11:43.716Z,5.57
2019-03-26T11:14:13.411Z,7.90
2019-03-26T11:16:43.143Z,8.70
2019-03-26T11:19:12.852Z,7.20
2019-03-26T11:21:42.589Z,8.20
2019-03-26T11:24:12.251Z,7.33
2019-03-26T11:26:41.959Z,9.53
2019-03-26T11:29:11.680Z,9.33
2019-03-26T11:31:41.407Z,8.13
2019-03-26T11:34:11.187Z,8.97
2019-03-26T11:36:40.877Z,10.27
2019-03-26T11:39:10.775Z,7.63
2019-03-26T11:41:40.486Z,9.10
2019-03-26T11:44:10.188Z,7.03
2019-03-26T11:46:40.028Z,7.63
2019-03-26T11:49:09.760Z,6.60
2019-03-26T11:51:39.485Z,7.03
2019-03-26T11:54:09.264Z,7.23
2019-03-26T11:56:38.976Z,7.73
2019-03-26T11:59:08.686Z,5.60
2019-03-26T12:01:38.428Z,9.43
2019-03-26T12:04:08.124Z,6.07
2019-03-26T12:06:37.814Z,7.27
2019-03-26T12:09:09.014Z,22.17
2019-03-26T12:11:38.708Z,7.37
2019-03-26T12:14:08.440Z,7.23
2019-03-26T12:16:38.136Z,6.87
2019-03-26T12:19:07.867Z,7.47
2019-03-26T12:21:37.555Z,7.17
2019-03-26T12:24:07.274Z,7.43
2019-03-26T12:26:36.968Z,7.00
2019-03-26T12:29:06.722Z,8.67
2019-03-26T12:31:36.480Z,6.23
2019-03-26T12:34:06.368Z,8.10
2019-03-26T12:36:40.135Z,6.17
2019-03-26T12:39:08.458Z,4.77
2019-03-26T12:41:38.623Z,5.43
2019-03-26T12:44:08.630Z,6.40
2019-03-26T12:46:38.395Z,5.57
2019-03-26T12:49:08.165Z,5.30
2019-03-26T12:51:39.441Z,6.87
2019-03-26T12:54:09.379Z,5.93
2019-03-26T12:56:39.080Z,5.43
2019-03-26T12:59:08.796Z,8.50
2019-03-26T13:01:38.526Z,7.00
2019-03-26T13:04:13.294Z,5.97
2019-03-26T13:06:39.664Z,7.43
2019-03-26T13:09:10.312Z,7.90
2019-03-26T13:11:40.041Z,6.90
2019-03-26T13:14:09.751Z,8.50
2019-03-26T13:16:39.572Z,8.30
2019-03-26T13:19:09.308Z,7.63
2019-03-26T13:21:39.143Z,6.73
2019-03-26T13:24:11.318Z,6.27
2019-03-26T13:26:40.245Z,5.13
2019-03-26T13:29:10.030Z,8.40
2019-03-26T13:31:39.711Z,5.13
2019-03-26T13:34:09.456Z,6.67
2019-03-26T13:36:39.396Z,6.57
2019-03-26T13:39:10.273Z,5.77
2019-03-26T13:41:40.060Z,7.83
2019-03-26T13:44:09.971Z,4.30
2019-03-26T13:46:39.732Z,5.27
2019-03-26T13:49:09.440Z,5.23
2019-03-26T13:51:39.189Z,7.20
2019-03-26T13:54:09.108Z,6.63
2019-03-26T13:56:38.912Z,7.93
2019-03-26T13:59:08.642Z,7.17
2019-03-26T14:01:38.447Z,8.53
2019-03-26T14:04:08.209Z,6.57
2019-03-26T14:06:37.928Z,7.53
2019-03-26T14:09:09.113Z,6.30
2019-03-26T14:11:38.795Z,4.40
2019-03-26T14:14:08.641Z,5.80
2019-03-26T14:16:38.514Z,6.57
2019-03-26T14:19:08.243Z,4.80
2019-03-26T14:21:37.954Z,5.83
2019-03-26T14:24:07.668Z,4.30
2019-03-26T14:26:37.366Z,5.63
2019-03-26T14:29:07.077Z,4.67
2019-03-26T14:31:36.868Z,4.17
2019-03-26T14:34:06.625Z,5.40
2019-03-26T14:36:36.367Z,8.20
2019-03-26T14:39:09.354Z,7.37
2019-03-26T14:41:39.176Z,5.63
2019-03-26T14:44:09.072Z,5.07
2019-03-26T14:46:38.792Z,5.27
2019-03-26T14:49:08.472Z,6.33
2019-03-26T14:51:38.213Z,5.73
2019-03-26T14:54:07.931Z,7.43
2019-03-26T14:56:37.664Z,5.43
2019-03-26T14:59:07.377Z,5.83
2019-03-26T15:01:37.229Z,7.27
2019-03-26T15:04:07.027Z,6.57
2019-03-26T15:06:36.845Z,5.13
2019-03-26T15:09:09.015Z,10.90
2019-03-26T15:11:38.836Z,6.70
2019-03-26T15:14:08.507Z,7.35
2019-03-26T15:16:38.300Z,6.40
2019-03-26T15:19:08.029Z,7.53
2019-03-26T15:21:37.949Z,8.60
2019-03-26T15:24:07.645Z,7.87
2019-03-26T15:26:37.363Z,6.83
2019-03-26T15:29:07.082Z,7.90
2019-03-26T15:31:36.802Z,7.30
2019-03-26T15:34:06.515Z,6.30
2019-03-26T15:36:36.261Z,5.90
2019-03-26T15:39:07.774Z,8.70
2019-03-26T15:41:37.477Z,11.53
2019-03-26T15:44:07.183Z,8.47
2019-03-26T15:46:36.976Z,8.60
2019-03-26T15:49:06.684Z,10.70
2019-03-26T15:51:36.520Z,11.40
2019-03-26T15:54:06.242Z,11.10
2019-03-26T15:56:35.966Z,10.50
2019-03-26T15:59:05.786Z,9.70
2019-03-26T16:01:35.569Z,11.00
2019-03-26T16:04:05.656Z,10.80
2019-03-26T16:06:35.373Z,10.23
2019-03-26T16:09:07.164Z,13.60
2019-03-26T16:11:36.991Z,11.40
2019-03-26T16:14:06.862Z,11.23
2019-03-26T16:16:38.030Z,10.60
2019-03-26T16:19:07.763Z,11.03
2019-03-26T16:21:37.627Z,13.07
2019-03-26T16:24:07.509Z,11.77
2019-03-26T16:26:37.222Z,13.77
2019-03-26T16:29:07.044Z,12.90
2019-03-26T16:31:36.760Z,13.07
2019-03-26T16:34:06.464Z,16.23
2019-03-26T16:36:36.171Z,15.63
2019-03-26T16:39:08.033Z,14.07
2019-03-26T16:41:48.417Z,14.10
2019-03-26T16:44:09.224Z,14.67
2019-03-26T16:46:38.956Z,17.13
2019-03-26T16:49:08.690Z,14.33
2019-03-26T16:51:38.569Z,18.53
2019-03-26T16:54:08.293Z,20.47
2019-03-26T16:56:37.985Z,16.87
2019-03-26T16:59:07.867Z,16.87
2019-03-26T17:01:37.587Z,17.33
2019-03-26T17:04:07.397Z,18.50
2019-03-26T17:06:37.105Z,21.77
2019-03-26T17:09:08.073Z,16.70
2019-03-26T17:11:37.804Z,19.23
2019-03-26T17:14:07.513Z,17.77
2019-03-26T17:16:37.284Z,18.67
2019-03-26T17:19:06.961Z,17.77
2019-03-26T17:21:36.675Z,19.10
2019-03-26T17:24:06.384Z,19.37
2019-03-26T17:26:36.205Z,18.77
2019-03-26T17:29:05.996Z,15.47
2019-03-26T17:31:35.828Z,22.00
2019-03-26T17:34:05.519Z,17.73
2019-03-26T17:36:35.242Z,20.33
2019-03-26T17:39:07.413Z,17.43
2019-03-26T17:41:37.326Z,18.60
2019-03-26T17:44:07.245Z,20.27
2019-03-26T17:46:36.979Z,17.67
2019-03-26T17:49:06.701Z,18.20
2019-03-26T17:51:36.480Z,28.63
2019-03-26T17:54:06.180Z,20.93
2019-03-26T17:56:36.000Z,21.80
2019-03-26T17:59:05.821Z,14.00
2019-03-26T18:01:35.569Z,16.33
2019-03-26T18:04:05.261Z,14.37
2019-03-26T18:06:35.038Z,15.40
2019-03-26T18:09:06.045Z,21.53
2019-03-26T18:11:35.788Z,13.40
2019-03-26T18:14:05.569Z,16.23
2019-03-26T18:16:35.382Z,14.03
2019-03-26T18:19:05.089Z,14.03
2019-03-26T18:21:34.924Z,12.07
2019-03-26T18:24:04.615Z,14.77
2019-03-26T18:26:34.340Z,14.40
2019-03-26T18:29:04.081Z,13.77
2019-03-26T18:31:33.978Z,14.47
2019-03-26T18:34:03.677Z,12.93
2019-03-26T18:36:33.612Z,15.07
2019-03-26T18:39:04.395Z,15.90
2019-03-26T18:41:34.117Z,13.47
2019-03-26T18:44:03.871Z,13.43
2019-03-26T18:46:33.594Z,11.23
2019-03-26T18:49:03.316Z,13.40
2019-03-26T18:51:33.028Z,12.73
2019-03-26T18:54:02.863Z,13.63
2019-03-26T18:56:32.606Z,14.43
2019-03-26T18:59:02.674Z,16.63
2019-03-26T19:01:32.372Z,12.33
2019-03-26T19:04:02.304Z,13.70
2019-03-26T19:06:32.000Z,12.73
2019-03-26T19:09:01.787Z,12.90
2019-03-26T19:11:31.498Z,14.27
2019-03-26T19:14:01.348Z,13.77
2019-03-26T19:16:31.134Z,12.80
2019-03-26T19:19:01.039Z,12.63
2019-03-26T19:21:30.836Z,14.57
2019-03-26T19:24:04.345Z,25.30
2019-03-26T19:26:32.044Z,23.63
2019-03-26T19:29:01.786Z,17.43
2019-03-26T19:31:31.699Z,13.43
2019-03-26T19:34:01.943Z,14.90
2019-03-26T19:36:31.852Z,15.77
2019-03-26T19:39:01.641Z,12.93
2019-03-26T19:41:31.477Z,12.27
2019-03-26T19:44:01.181Z,12.40
2019-03-26T19:46:30.933Z,12.80
2019-03-26T19:49:00.650Z,14.80
2019-03-26T19:51:30.475Z,12.60
2019-03-26T19:54:00.381Z,13.20
2019-03-26T19:56:30.283Z,13.93
2019-03-26T19:59:00.012Z,13.60
2019-03-26T20:01:29.973Z,14.90
2019-03-26T20:04:00.070Z,13.30
2019-03-26T20:06:29.963Z,35.87
2019-03-26T20:08:59.780Z,17.87
2019-03-26T20:11:29.522Z,16.50
2019-03-26T20:13:59.450Z,15.27
2019-03-26T20:16:41.361Z,15.37
2019-03-26T20:19:00.744Z,16.67
2019-03-26T20:21:30.577Z,13.07
2019-03-26T20:24:00.293Z,11.93
2019-03-26T20:26:30.020Z,17.13
2019-03-26T20:28:59.754Z,11.63
2019-03-26T20:31:29.674Z,14.33
2019-03-26T20:33:59.423Z,15.50
2019-03-26T20:36:29.272Z,17.97
2019-03-26T20:38:58.979Z,17.47
2019-03-26T20:41:28.732Z,16.40
2019-03-26T20:43:58.486Z,51.47
2019-03-26T20:46:28.381Z,14.33
2019-03-26T20:48:58.280Z,14.53
2019-03-26T20:51:28.105Z,15.10
2019-03-26T20:53:57.913Z,18.77
2019-03-26T20:56:28.021Z,18.63
2019-03-26T20:58:58.068Z,19.13
2019-03-26T21:01:27.871Z,18.13
2019-03-26T21:03:57.675Z,18.13
2019-03-26T21:06:27.431Z,13.53
2019-03-26T21:08:57.154Z,16.77
2019-03-26T21:11:26.843Z,16.20
2019-03-26T21:13:56.621Z,11.03
2019-03-26T21:16:26.325Z,13.00
2019-03-26T21:18:56.146Z,13.97
2019-03-26T21:21:25.930Z,15.20
2019-03-26T21:23:55.721Z,14.43
2019-03-26T21:26:25.488Z,14.50
2019-03-26T21:28:55.298Z,16.60
2019-03-26T21:31:25.048Z,21.20
2019-03-26T21:33:54.781Z,18.53
2019-03-26T21:36:24.474Z,14.80
2019-03-26T21:38:54.309Z,15.43
2019-03-26T21:41:24.094Z,12.97
2019-03-26T21:44:03.506Z,14.90
2019-03-26T21:46:25.297Z,16.47
2019-03-26T21:48:55.132Z,14.97
2019-03-26T21:51:24.861Z,16.37
2019-03-26T21:53:54.651Z,14.33
2019-03-26T21:56:24.353Z,17.90
2019-03-26T21:58:54.056Z,15.50
2019-03-26T22:01:23.792Z,21.50
2019-03-26T22:03:53.593Z,16.40
2019-03-26T22:06:23.320Z,17.17
2019-03-26T22:08:53.048Z,16.77
2019-03-26T22:11:22.781Z,17.77
2019-03-26T22:13:52.514Z,18.27
2019-03-26T22:16:22.388Z,13.47
2019-03-26T22:18:52.139Z,15.03
2019-03-26T22:21:21.872Z,14.67
2019-03-26T22:23:51.622Z,17.03
2019-03-26T22:26:21.406Z,14.43
2019-03-26T22:28:51.108Z,14.00
2019-03-26T22:31:20.853Z,14.87
2019-03-26T22:33:50.579Z,14.10
2019-03-26T22:36:20.322Z,15.03
2019-03-26T22:38:50.100Z,13.80
2019-03-26T22:41:19.900Z,13.67
2019-03-26T22:43:49.618Z,13.53
2019-03-26T22:46:19.389Z,15.07
2019-03-26T22:48:49.185Z,13.30
2019-03-26T22:51:18.926Z,12.33
2019-03-26T22:53:48.656Z,14.60
2019-03-26T22:56:18.405Z,13.17
2019-03-26T22:58:48.161Z,14.93
2019-03-26T23:01:18.200Z,12.63
2019-03-26T23:03:47.892Z,14.77
2019-03-26T23:06:17.631Z,13.27
2019-03-26T23:08:47.407Z,15.47
2019-03-26T23:11:17.120Z,13.40
2019-03-26T23:13:46.830Z,16.70
2019-03-26T23:16:16.588Z,13.23
2019-03-26T23:18:46.313Z,13.47
2019-03-26T23:21:16.044Z,17.43
2019-03-26T23:23:45.821Z,15.23
2019-03-26T23:26:15.532Z,16.33
2019-03-26T23:28:45.274Z,15.17
2019-03-26T23:31:14.983Z,15.03
2019-03-26T23:33:44.696Z,12.33
2019-03-26T23:36:14.384Z,12.60
2019-03-26T23:38:44.164Z,18.70
2019-03-26T23:41:13.845Z,16.80
2019-03-26T23:43:43.636Z,15.93
2019-03-26T23:46:13.326Z,13.90
2019-03-26T23:48:43.106Z,14.10
2019-03-26T23:51:12.883Z,16.40
2019-03-26T23:53:42.629Z,14.63
2019-03-26T23:56:12.398Z,16.30
2019-03-26T23:58:42.131Z,12.87
